sensor_id;sensor_type;location;lat;lon;timestamp;temperature;humidity
4693;DHT22;11710;48.024;16.296;2023-07-02T04:52:56;26.60;93.10
4693;DHT22;11710;48.024;16.296;2023-07-02T04:55:23;26.00;93.60
4693;DHT22;11710;48.024;16.296;2023-07-02T04:57:50;25.60;93.90
4693;DHT22;11710;48.024;16.296;2023-07-02T05:00:18;25.30;94.20
4693;DHT22;11710;48.024;16.296;2023-07-02T05:02:45;25.00;94.60
4693;DHT22;11710;48.024;16.296;2023-07-02T05:05:12;24.70;94.90
4693;DHT22;11710;48.024;16.296;2023-07-02T05:07:40;24.20;95.20
4693;DHT22;11710;48.024;16.296;2023-07-02T05:10:10;23.90;95.60
4693;DHT22;11710;48.024;16.296;2023-07-02T05:12:37;23.60;95.90
4693;DHT22;11710;48.024;16.296;2023-07-02T05:15:06;23.40;96.30
4693;DHT22;11710;48.024;16.296;2023-07-02T05:17:33;23.20;96.60
4693;DHT22;11710;48.024;16.296;2023-07-02T05:20:02;23.10;96.90
4693;DHT22;11710;48.024;16.296;2023-07-02T05:22:30;23.00;97.00
4693;DHT22;11710;48.024;16.296;2023-07-02T05:24:58;23.00;97.30
4693;DHT22;11710;48.024;16.296;2023-07-02T05:27:26;22.90;97.50
4693;DHT22;11710;48.024;16.296;2023-07-02T05:29:53;22.80;97.60
4693;DHT22;11710;48.024;16.296;2023-07-02T05:32:21;22.80;97.90
4693;DHT22;11710;48.024;16.296;2023-07-02T05:34:48;22.70;98.20
4693;DHT22;11710;48.024;16.296;2023-07-02T05:37:15;22.60;98.30
4693;DHT22;11710;48.024;16.296;2023-07-02T05:39:42;22.60;98.60
4693;DHT22;11710;48.024;16.296;2023-07-02T05:42:09;22.60;98.60
4693;DHT22;11710;48.024;16.296;2023-07-02T05:44:38;22.50;98.80
4693;DHT22;11710;48.024;16.296;2023-07-02T05:47:05;22.40;98.90
4693;DHT22;11710;48.024;16.296;2023-07-02T05:49:33;22.40;99.30
4693;DHT22;11710;48.024;16.296;2023-07-02T05:52:00;22.40;99.30
4693;DHT22;11710;48.024;16.296;2023-07-02T05:54:27;22.40;99.40
4693;DHT22;11710;48.024;16.296;2023-07-02T05:56:54;22.30;99.50
4693;DHT22;11710;48.024;16.296;2023-07-02T05:59:21;22.30;99.60
4693;DHT22;11710;48.024;16.296;2023-07-02T06:01:50;22.10;99.70
4693;DHT22;11710;48.024;16.296;2023-07-02T06:04:17;22.10;99.90
4693;DHT22;11710;48.024;16.296;2023-07-02T06:06:44;22.10;99.90
4693;DHT22;11710;48.024;16.296;2023-07-02T06:09:12;22.10;99.90
4693;DHT22;11710;48.024;16.296;2023-07-02T06:11:39;22.10;99.90
4693;DHT22;11710;48.024;16.296;2023-07-02T06:14:06;22.10;99.90
4693;DHT22;11710;48.024;16.296;2023-07-02T06:16:33;22.10;99.90
4693;DHT22;11710;48.024;16.296;2023-07-02T06:19:02;22.10;99.90
4693;DHT22;11710;48.024;16.296;2023-07-02T06:21:29;22.10;99.90
4693;DHT22;11710;48.024;16.296;2023-07-02T06:23:57;22.10;99.90
4693;DHT22;11710;48.024;16.296;2023-07-02T06:26:25;22.10;99.90
4693;DHT22;11710;48.024;16.296;2023-07-02T06:28:52;22.20;99.90
4693;DHT22;11710;48.024;16.296;2023-07-02T06:31:19;22.20;99.90
4693;DHT22;11710;48.024;16.296;2023-07-02T06:33:46;22.20;99.90
4693;DHT22;11710;48.024;16.296;2023-07-02T06:36:15;22.30;99.90
4693;DHT22;11710;48.024;16.296;2023-07-02T06:38:43;22.50;99.90
4693;DHT22;11710;48.024;16.296;2023-07-02T06:41:10;22.60;99.90
4693;DHT22;11710;48.024;16.296;2023-07-02T06:43:38;22.70;99.90
4693;DHT22;11710;48.024;16.296;2023-07-02T06:46:05;22.80;99.50
4693;DHT22;11710;48.024;16.296;2023-07-02T06:48:32;22.90;99.50
4693;DHT22;11710;48.024;16.296;2023-07-02T06:51:00;23.10;99.60
4693;DHT22;11710;48.024;16.296;2023-07-02T06:53:29;23.30;99.40
4693;DHT22;11710;48.024;16.296;2023-07-02T06:55:56;23.50;99.00
4693;DHT22;11710;48.024;16.296;2023-07-02T06:58:23;23.60;98.80
4693;DHT22;11710;48.024;16.296;2023-07-02T07:00:50;23.80;98.50
4693;DHT22;11710;48.024;16.296;2023-07-02T07:03:18;24.10;98.40
4693;DHT22;11710;48.024;16.296;2023-07-02T07:05:45;24.50;98.10
4693;DHT22;11710;48.024;16.296;2023-07-02T07:08:12;24.80;97.80
4693;DHT22;11710;48.024;16.296;2023-07-02T07:10:40;25.10;97.40
4693;DHT22;11710;48.024;16.296;2023-07-02T07:13:08;25.50;96.90
4693;DHT22;11710;48.024;16.296;2023-07-02T07:15:35;25.80;96.70
4693;DHT22;11710;48.024;16.296;2023-07-02T07:18:02;26.10;96.50
4693;DHT22;11710;48.024;16.296;2023-07-02T07:20:30;26.40;96.00
4693;DHT22;11710;48.024;16.296;2023-07-02T07:22:57;26.50;95.60
4693;DHT22;11710;48.024;16.296;2023-07-02T07:25:24;26.70;95.60
4693;DHT22;11710;48.024;16.296;2023-07-02T07:27:53;27.00;95.40
4693;DHT22;11710;48.024;16.296;2023-07-02T07:30:20;27.30;94.90
4693;DHT22;11710;48.024;16.296;2023-07-02T07:32:49;27.30;94.70
4693;DHT22;11710;48.024;16.296;2023-07-02T07:35:17;27.40;94.60
4693;DHT22;11710;48.024;16.296;2023-07-02T07:37:45;27.40;94.30
4693;DHT22;11710;48.024;16.296;2023-07-02T07:40:13;27.40;94.10
4693;DHT22;11710;48.024;16.296;2023-07-02T07:42:40;27.40;94.10
4693;DHT22;11710;48.024;16.296;2023-07-02T07:45:10;27.60;93.70
4693;DHT22;11710;48.024;16.296;2023-07-02T07:47:38;28.00;93.90
4693;DHT22;11710;48.024;16.296;2023-07-02T07:50:07;28.20;93.60
4693;DHT22;11710;48.024;16.296;2023-07-02T07:52:37;28.60;93.50
4693;DHT22;11710;48.024;16.296;2023-07-02T07:55:05;29.00;93.70
4693;DHT22;11710;48.024;16.296;2023-07-02T07:57:33;29.30;93.20
4693;DHT22;11710;48.024;16.296;2023-07-02T08:00:01;29.40;92.50
4693;DHT22;11710;48.024;16.296;2023-07-02T08:02:31;29.50;92.40
4693;DHT22;11710;48.024;16.296;2023-07-02T08:04:59;29.60;91.70
4693;DHT22;11710;48.024;16.296;2023-07-02T08:07:26;29.50;91.10
4693;DHT22;11710;48.024;16.296;2023-07-02T08:09:53;29.40;90.90
4693;DHT22;11710;48.024;16.296;2023-07-02T08:12:20;29.20;90.50
4693;DHT22;11710;48.024;16.296;2023-07-02T08:14:48;29.10;91.10
4693;DHT22;11710;48.024;16.296;2023-07-02T08:17:15;28.90;90.60
4693;DHT22;11710;48.024;16.296;2023-07-02T08:19:44;28.70;90.90
4693;DHT22;11710;48.024;16.296;2023-07-02T08:22:12;28.70;91.10
4693;DHT22;11710;48.024;16.296;2023-07-02T08:24:39;28.80;91.60
4693;DHT22;11710;48.024;16.296;2023-07-02T08:27:06;28.90;91.60
4693;DHT22;11710;48.024;16.296;2023-07-02T08:29:33;28.90;91.40
4693;DHT22;11710;48.024;16.296;2023-07-02T08:32:01;28.90;91.30
4693;DHT22;11710;48.024;16.296;2023-07-02T08:34:28;29.00;91.10
4693;DHT22;11710;48.024;16.296;2023-07-02T08:36:57;29.10;90.80
4693;DHT22;11710;48.024;16.296;2023-07-02T08:39:24;28.90;90.80
4693;DHT22;11710;48.024;16.296;2023-07-02T08:41:51;28.70;90.90
4693;DHT22;11710;48.024;16.296;2023-07-02T08:44:21;28.60;90.60
4693;DHT22;11710;48.024;16.296;2023-07-02T08:46:48;28.70;91.00
4693;DHT22;11710;48.024;16.296;2023-07-02T08:49:19;28.70;90.50
4693;DHT22;11710;48.024;16.296;2023-07-02T08:51:47;28.80;90.50
4693;DHT22;11710;48.024;16.296;2023-07-02T08:54:17;28.90;90.40
4693;DHT22;11710;48.024;16.296;2023-07-02T08:56:45;29.10;90.70
4693;DHT22;11710;48.024;16.296;2023-07-02T08:59:12;29.00;90.10
4693;DHT22;11710;48.024;16.296;2023-07-02T09:01:46;29.10;90.00
4693;DHT22;11710;48.024;16.296;2023-07-02T09:04:18;29.50;90.80
4693;DHT22;11710;48.024;16.296;2023-07-02T09:06:46;29.60;88.30
4693;DHT22;11710;48.024;16.296;2023-07-02T09:09:15;29.70;89.30
4693;DHT22;11710;48.024;16.296;2023-07-02T09:11:50;29.60;88.80
4693;DHT22;11710;48.024;16.296;2023-07-02T09:14:27;29.80;88.80
4693;DHT22;11710;48.024;16.296;2023-07-02T09:17:03;29.90;87.70
4693;DHT22;11710;48.024;16.296;2023-07-02T09:19:31;29.80;88.00
4693;DHT22;11710;48.024;16.296;2023-07-02T09:22:00;29.80;88.90
4693;DHT22;11710;48.024;16.296;2023-07-02T09:24:29;29.60;88.60
4693;DHT22;11710;48.024;16.296;2023-07-02T09:26:58;29.10;88.00
4693;DHT22;11710;48.024;16.296;2023-07-02T09:29:27;28.80;87.90
4693;DHT22;11710;48.024;16.296;2023-07-02T09:31:56;28.60;88.70
4693;DHT22;11710;48.024;16.296;2023-07-02T09:34:28;28.50;89.80
4693;DHT22;11710;48.024;16.296;2023-07-02T09:36:56;28.40;89.20
4693;DHT22;11710;48.024;16.296;2023-07-02T09:39:29;28.30;89.80
4693;DHT22;11710;48.024;16.296;2023-07-02T09:41:59;28.30;90.50
4693;DHT22;11710;48.024;16.296;2023-07-02T09:44:28;28.10;90.20
4693;DHT22;11710;48.024;16.296;2023-07-02T09:47:01;27.80;90.30
4693;DHT22;11710;48.024;16.296;2023-07-02T09:49:32;27.50;90.50
4693;DHT22;11710;48.024;16.296;2023-07-02T09:52:01;27.40;90.80
4693;DHT22;11710;48.024;16.296;2023-07-02T09:54:31;27.30;90.90
4693;DHT22;11710;48.024;16.296;2023-07-02T09:56:59;27.20;90.80
4693;DHT22;11710;48.024;16.296;2023-07-02T09:59:27;27.20;90.80
4693;DHT22;11710;48.024;16.296;2023-07-02T10:01:54;27.10;90.70
4693;DHT22;11710;48.024;16.296;2023-07-02T10:04:22;27.20;91.10
4693;DHT22;11710;48.024;16.296;2023-07-02T10:06:52;27.50;91.20
4693;DHT22;11710;48.024;16.296;2023-07-02T10:09:21;27.70;90.60
4693;DHT22;11710;48.024;16.296;2023-07-02T10:11:50;27.60;90.40
4693;DHT22;11710;48.024;16.296;2023-07-02T10:14:17;27.60;90.20
4693;DHT22;11710;48.024;16.296;2023-07-02T10:16:52;27.50;90.40
4693;DHT22;11710;48.024;16.296;2023-07-02T10:19:20;27.30;90.60
4693;DHT22;11710;48.024;16.296;2023-07-02T10:22:00;27.30;90.40
4693;DHT22;11710;48.024;16.296;2023-07-02T10:24:28;27.20;90.50
4693;DHT22;11710;48.024;16.296;2023-07-02T10:26:57;27.20;90.90
4693;DHT22;11710;48.024;16.296;2023-07-02T10:29:26;27.10;90.80
4693;DHT22;11710;48.024;16.296;2023-07-02T10:31:55;26.90;91.00
4693;DHT22;11710;48.024;16.296;2023-07-02T10:34:33;26.90;91.20
4693;DHT22;11710;48.024;16.296;2023-07-02T10:37:01;26.80;90.80
4693;DHT22;11710;48.024;16.296;2023-07-02T10:39:29;26.90;91.00
4693;DHT22;11710;48.024;16.296;2023-07-02T10:42:08;27.10;90.90
4693;DHT22;11710;48.024;16.296;2023-07-02T10:44:47;27.30;90.50
4693;DHT22;11710;48.024;16.296;2023-07-02T10:47:15;27.50;90.70
4693;DHT22;11710;48.024;16.296;2023-07-02T10:49:42;27.70;90.00
4693;DHT22;11710;48.024;16.296;2023-07-02T10:52:09;28.00;90.50
4693;DHT22;11710;48.024;16.296;2023-07-02T10:54:40;28.30;89.80
4693;DHT22;11710;48.024;16.296;2023-07-02T10:57:10;28.50;89.10
4693;DHT22;11710;48.024;16.296;2023-07-02T10:59:38;28.70;88.80
4693;DHT22;11710;48.024;16.296;2023-07-02T11:02:06;28.80;89.00
4693;DHT22;11710;48.024;16.296;2023-07-02T11:04:33;29.00;88.50
4693;DHT22;11710;48.024;16.296;2023-07-02T11:07:01;29.00;88.20
4693;DHT22;11710;48.024;16.296;2023-07-02T11:09:28;29.00;88.20
4693;DHT22;11710;48.024;16.296;2023-07-02T11:11:56;29.00;87.40
4693;DHT22;11710;48.024;16.296;2023-07-02T11:14:29;29.10;88.00
4693;DHT22;11710;48.024;16.296;2023-07-02T11:16:58;29.30;87.40
4693;DHT22;11710;48.024;16.296;2023-07-02T11:19:25;29.20;86.80
4693;DHT22;11710;48.024;16.296;2023-07-02T11:21:54;29.10;86.60
4693;DHT22;11710;48.024;16.296;2023-07-02T11:24:28;29.10;86.40
4693;DHT22;11710;48.024;16.296;2023-07-02T11:26:56;29.10;86.90
4693;DHT22;11710;48.024;16.296;2023-07-02T11:29:24;29.10;86.00
4693;DHT22;11710;48.024;16.296;2023-07-02T11:31:52;29.30;87.50
4693;DHT22;11710;48.024;16.296;2023-07-02T11:34:21;29.70;86.80
4693;DHT22;11710;48.024;16.296;2023-07-02T11:36:50;29.80;85.90
4693;DHT22;11710;48.024;16.296;2023-07-02T11:39:19;29.90;85.30
4693;DHT22;11710;48.024;16.296;2023-07-02T11:41:48;29.90;85.50
4693;DHT22;11710;48.024;16.296;2023-07-02T11:44:16;29.90;84.60
4693;DHT22;11710;48.024;16.296;2023-07-02T11:46:43;30.00;85.10
4693;DHT22;11710;48.024;16.296;2023-07-02T11:49:14;30.10;85.40
4693;DHT22;11710;48.024;16.296;2023-07-02T11:51:42;30.00;84.80
4693;DHT22;11710;48.024;16.296;2023-07-02T11:54:14;30.00;84.60
4693;DHT22;11710;48.024;16.296;2023-07-02T11:56:43;29.90;84.20
4693;DHT22;11710;48.024;16.296;2023-07-02T11:59:11;30.10;84.40
4693;DHT22;11710;48.024;16.296;2023-07-02T12:01:38;30.00;84.00
4693;DHT22;11710;48.024;16.296;2023-07-02T12:04:05;30.00;83.90
4693;DHT22;11710;48.024;16.296;2023-07-02T12:06:35;29.90;83.30
4693;DHT22;11710;48.024;16.296;2023-07-02T12:09:02;29.80;82.10
4693;DHT22;11710;48.024;16.296;2023-07-02T12:11:30;29.70;82.10
4693;DHT22;11710;48.024;16.296;2023-07-02T12:13:57;29.50;81.80
4693;DHT22;11710;48.024;16.296;2023-07-02T12:16:24;29.40;82.70
4693;DHT22;11710;48.024;16.296;2023-07-02T12:18:51;29.30;83.00
4693;DHT22;11710;48.024;16.296;2023-07-02T12:21:19;29.50;82.10
4693;DHT22;11710;48.024;16.296;2023-07-02T12:23:47;29.50;82.00
4693;DHT22;11710;48.024;16.296;2023-07-02T12:26:14;29.40;82.80
4693;DHT22;11710;48.024;16.296;2023-07-02T12:28:42;29.50;81.70
4693;DHT22;11710;48.024;16.296;2023-07-02T12:31:09;29.60;82.80
4693;DHT22;11710;48.024;16.296;2023-07-02T12:33:36;29.60;82.70
4693;DHT22;11710;48.024;16.296;2023-07-02T12:36:03;29.40;82.20
4693;DHT22;11710;48.024;16.296;2023-07-02T12:38:30;29.20;83.40
4693;DHT22;11710;48.024;16.296;2023-07-02T12:40:59;29.20;84.00
4693;DHT22;11710;48.024;16.296;2023-07-02T12:43:26;29.20;83.80
4693;DHT22;11710;48.024;16.296;2023-07-02T12:45:53;29.20;84.60
4693;DHT22;11710;48.024;16.296;2023-07-02T12:48:21;29.10;83.10
4693;DHT22;11710;48.024;16.296;2023-07-02T12:50:55;29.00;84.40
4693;DHT22;11710;48.024;16.296;2023-07-02T12:53:23;29.00;84.70
4693;DHT22;11710;48.024;16.296;2023-07-02T12:55:50;29.00;83.70
4693;DHT22;11710;48.024;16.296;2023-07-02T12:58:20;28.90;83.40
4693;DHT22;11710;48.024;16.296;2023-07-02T13:00:47;28.90;83.20
4693;DHT22;11710;48.024;16.296;2023-07-02T13:03:18;28.80;84.70
4693;DHT22;11710;48.024;16.296;2023-07-02T13:05:45;28.80;83.90
4693;DHT22;11710;48.024;16.296;2023-07-02T13:08:12;28.60;83.70
4693;DHT22;11710;48.024;16.296;2023-07-02T13:10:39;28.50;83.40
4693;DHT22;11710;48.024;16.296;2023-07-02T13:13:06;28.50;83.80
4693;DHT22;11710;48.024;16.296;2023-07-02T13:15:35;28.50;84.40
4693;DHT22;11710;48.024;16.296;2023-07-02T13:18:02;28.40;84.20
4693;DHT22;11710;48.024;16.296;2023-07-02T13:20:30;28.20;84.10
4693;DHT22;11710;48.024;16.296;2023-07-02T13:22:58;28.00;84.80
4693;DHT22;11710;48.024;16.296;2023-07-02T13:25:25;28.00;85.30
4693;DHT22;11710;48.024;16.296;2023-07-02T13:27:52;28.00;85.60
4693;DHT22;11710;48.024;16.296;2023-07-02T13:30:19;28.00;85.60
4693;DHT22;11710;48.024;16.296;2023-07-02T13:32:49;27.90;86.50
4693;DHT22;11710;48.024;16.296;2023-07-02T13:35:16;28.00;86.60
4693;DHT22;11710;48.024;16.296;2023-07-02T13:37:43;28.00;85.80
4693;DHT22;11710;48.024;16.296;2023-07-02T13:40:11;28.00;86.00
4693;DHT22;11710;48.024;16.296;2023-07-02T13:42:41;28.00;86.80
4693;DHT22;11710;48.024;16.296;2023-07-02T13:45:09;28.00;86.30
4693;DHT22;11710;48.024;16.296;2023-07-02T13:47:37;28.00;86.00
4693;DHT22;11710;48.024;16.296;2023-07-02T13:50:07;27.90;86.20
4693;DHT22;11710;48.024;16.296;2023-07-02T13:52:34;27.70;86.20
4693;DHT22;11710;48.024;16.296;2023-07-02T13:55:01;27.60;86.40
4693;DHT22;11710;48.024;16.296;2023-07-02T13:57:28;27.50;86.30
4693;DHT22;11710;48.024;16.296;2023-07-02T13:59:57;27.30;86.70
4693;DHT22;11710;48.024;16.296;2023-07-02T14:02:24;27.10;86.50
4693;DHT22;11710;48.024;16.296;2023-07-02T14:04:51;26.80;86.10
4693;DHT22;11710;48.024;16.296;2023-07-02T14:07:19;26.50;86.80
4693;DHT22;11710;48.024;16.296;2023-07-02T14:09:46;26.40;87.50
4693;DHT22;11710;48.024;16.296;2023-07-02T14:12:13;26.40;87.50
4693;DHT22;11710;48.024;16.296;2023-07-02T14:14:41;26.30;88.20
4693;DHT22;11710;48.024;16.296;2023-07-02T14:17:09;26.40;87.80
4693;DHT22;11710;48.024;16.296;2023-07-02T14:19:36;26.60;88.10
4693;DHT22;11710;48.024;16.296;2023-07-02T14:22:04;26.50;87.70
4693;DHT22;11710;48.024;16.296;2023-07-02T14:24:31;26.50;87.80
4693;DHT22;11710;48.024;16.296;2023-07-02T14:26:58;26.50;87.60
4693;DHT22;11710;48.024;16.296;2023-07-02T14:29:25;26.50;87.90
4693;DHT22;11710;48.024;16.296;2023-07-02T14:31:52;26.50;88.20
4693;DHT22;11710;48.024;16.296;2023-07-02T14:34:21;26.70;87.90
4693;DHT22;11710;48.024;16.296;2023-07-02T14:36:48;26.70;88.00
4693;DHT22;11710;48.024;16.296;2023-07-02T14:39:15;26.80;87.60
4693;DHT22;11710;48.024;16.296;2023-07-02T14:41:42;26.80;87.10
4693;DHT22;11710;48.024;16.296;2023-07-02T14:44:10;26.60;87.70
4693;DHT22;11710;48.024;16.296;2023-07-02T14:46:37;26.40;87.50
4693;DHT22;11710;48.024;16.296;2023-07-02T14:49:04;26.30;87.70
4693;DHT22;11710;48.024;16.296;2023-07-02T14:51:33;26.20;88.20
4693;DHT22;11710;48.024;16.296;2023-07-02T14:54:00;26.10;88.00
4693;DHT22;11710;48.024;16.296;2023-07-02T14:56:29;26.00;87.90
4693;DHT22;11710;48.024;16.296;2023-07-02T14:58:56;25.80;87.80
4693;DHT22;11710;48.024;16.296;2023-07-02T15:01:24;25.60;88.80
4693;DHT22;11710;48.024;16.296;2023-07-02T15:03:51;25.50;89.10
4693;DHT22;11710;48.024;16.296;2023-07-02T15:06:18;25.40;89.50
4693;DHT22;11710;48.024;16.296;2023-07-02T15:08:47;25.30;89.50
4693;DHT22;11710;48.024;16.296;2023-07-02T15:11:15;25.40;89.90
4693;DHT22;11710;48.024;16.296;2023-07-02T15:13:43;25.40;89.70
4693;DHT22;11710;48.024;16.296;2023-07-02T15:16:11;25.50;89.60
4693;DHT22;11710;48.024;16.296;2023-07-02T15:18:39;25.50;90.00
4693;DHT22;11710;48.024;16.296;2023-07-02T15:21:06;25.50;89.60
4693;DHT22;11710;48.024;16.296;2023-07-02T15:23:35;25.60;89.90
4693;DHT22;11710;48.024;16.296;2023-07-02T15:26:05;25.60;90.00
4693;DHT22;11710;48.024;16.296;2023-07-02T15:28:33;25.70;90.00
4693;DHT22;11710;48.024;16.296;2023-07-02T15:31:04;25.80;89.50
4693;DHT22;11710;48.024;16.296;2023-07-02T15:33:32;25.60;88.90
4693;DHT22;11710;48.024;16.296;2023-07-02T15:36:00;25.50;88.60
4693;DHT22;11710;48.024;16.296;2023-07-02T15:38:28;25.40;89.70
4693;DHT22;11710;48.024;16.296;2023-07-02T15:41:08;25.50;88.90
4693;DHT22;11710;48.024;16.296;2023-07-02T15:43:36;25.40;88.90
4693;DHT22;11710;48.024;16.296;2023-07-02T15:46:04;25.40;88.60
4693;DHT22;11710;48.024;16.296;2023-07-02T15:48:31;25.40;88.70
4693;DHT22;11710;48.024;16.296;2023-07-02T15:50:59;25.40;89.10
4693;DHT22;11710;48.024;16.296;2023-07-02T15:53:28;25.50;88.50
4693;DHT22;11710;48.024;16.296;2023-07-02T15:55:55;25.50;88.50
4693;DHT22;11710;48.024;16.296;2023-07-02T15:58:26;25.50;88.20
4693;DHT22;11710;48.024;16.296;2023-07-02T16:00:54;25.40;88.20
4693;DHT22;11710;48.024;16.296;2023-07-02T16:03:21;25.30;88.10
4693;DHT22;11710;48.024;16.296;2023-07-02T16:05:48;25.30;88.30
4693;DHT22;11710;48.024;16.296;2023-07-02T16:08:21;25.30;88.00
4693;DHT22;11710;48.024;16.296;2023-07-02T16:10:48;25.20;88.00
4693;DHT22;11710;48.024;16.296;2023-07-02T16:13:15;25.20;88.00
4693;DHT22;11710;48.024;16.296;2023-07-02T16:15:44;25.20;87.90
4693;DHT22;11710;48.024;16.296;2023-07-02T16:18:11;25.30;87.80
4693;DHT22;11710;48.024;16.296;2023-07-02T16:20:38;25.30;87.40
4693;DHT22;11710;48.024;16.296;2023-07-02T16:23:07;25.30;87.30
4693;DHT22;11710;48.024;16.296;2023-07-02T16:25:35;25.30;86.90
4693;DHT22;11710;48.024;16.296;2023-07-02T16:28:02;25.30;86.90
4693;DHT22;11710;48.024;16.296;2023-07-02T16:30:32;25.30;86.80
4693;DHT22;11710;48.024;16.296;2023-07-02T16:33:01;25.20;86.50
4693;DHT22;11710;48.024;16.296;2023-07-02T16:35:29;25.30;86.60
4693;DHT22;11710;48.024;16.296;2023-07-02T16:37:56;25.20;86.60
4693;DHT22;11710;48.024;16.296;2023-07-02T16:40:23;25.30;87.10
4693;DHT22;11710;48.024;16.296;2023-07-02T16:42:50;25.30;86.80
4693;DHT22;11710;48.024;16.296;2023-07-02T16:45:17;25.30;87.10
4693;DHT22;11710;48.024;16.296;2023-07-02T16:47:46;25.20;87.20
4693;DHT22;11710;48.024;16.296;2023-07-02T16:50:15;25.20;87.50
4693;DHT22;11710;48.024;16.296;2023-07-02T16:52:43;25.10;87.40
4693;DHT22;11710;48.024;16.296;2023-07-02T16:55:10;25.10;87.50
4693;DHT22;11710;48.024;16.296;2023-07-02T16:57:39;25.10;87.50
4693;DHT22;11710;48.024;16.296;2023-07-02T17:00:08;25.10;88.10
4693;DHT22;11710;48.024;16.296;2023-07-02T17:02:36;25.10;88.20
4693;DHT22;11710;48.024;16.296;2023-07-02T17:05:04;25.10;88.50
4693;DHT22;11710;48.024;16.296;2023-07-02T17:07:32;25.10;87.90
4693;DHT22;11710;48.024;16.296;2023-07-02T17:10:00;25.10;88.70
4693;DHT22;11710;48.024;16.296;2023-07-02T17:12:27;25.10;88.00
4693;DHT22;11710;48.024;16.296;2023-07-02T17:14:54;25.10;87.90
4693;DHT22;11710;48.024;16.296;2023-07-02T17:17:23;25.10;88.30
4693;DHT22;11710;48.024;16.296;2023-07-02T17:19:53;25.00;88.50
4693;DHT22;11710;48.024;16.296;2023-07-02T17:22:23;25.00;88.60
4693;DHT22;11710;48.024;16.296;2023-07-02T17:24:53;24.90;88.70
4693;DHT22;11710;48.024;16.296;2023-07-02T17:27:24;24.90;89.30
4693;DHT22;11710;48.024;16.296;2023-07-02T17:29:54;24.80;89.50
4693;DHT22;11710;48.024;16.296;2023-07-02T17:32:23;24.80;89.80
4693;DHT22;11710;48.024;16.296;2023-07-02T17:34:51;24.70;89.40
4693;DHT22;11710;48.024;16.296;2023-07-02T17:37:19;24.70;89.80
4693;DHT22;11710;48.024;16.296;2023-07-02T17:39:48;24.70;89.50
4693;DHT22;11710;48.024;16.296;2023-07-02T17:42:18;24.70;90.00
4693;DHT22;11710;48.024;16.296;2023-07-02T17:44:46;24.70;90.00
4693;DHT22;11710;48.024;16.296;2023-07-02T17:47:14;24.60;90.00
4693;DHT22;11710;48.024;16.296;2023-07-02T17:49:44;24.60;90.30
4693;DHT22;11710;48.024;16.296;2023-07-02T17:52:13;24.60;90.20
4693;DHT22;11710;48.024;16.296;2023-07-02T17:54:44;24.60;90.60
4693;DHT22;11710;48.024;16.296;2023-07-02T17:57:13;24.50;90.40
4693;DHT22;11710;48.024;16.296;2023-07-02T17:59:42;24.40;90.40
4693;DHT22;11710;48.024;16.296;2023-07-02T18:02:13;24.40;90.50
4693;DHT22;11710;48.024;16.296;2023-07-02T18:04:40;24.40;90.40
4693;DHT22;11710;48.024;16.296;2023-07-02T18:07:10;24.40;90.50
4693;DHT22;11710;48.024;16.296;2023-07-02T18:09:39;24.40;90.60
4693;DHT22;11710;48.024;16.296;2023-07-02T18:12:08;24.40;90.50
4693;DHT22;11710;48.024;16.296;2023-07-02T18:14:37;24.40;90.60
4693;DHT22;11710;48.024;16.296;2023-07-02T18:17:07;24.40;90.80
4693;DHT22;11710;48.024;16.296;2023-07-02T18:19:34;24.30;90.70
4693;DHT22;11710;48.024;16.296;2023-07-02T18:22:02;24.30;90.70
4693;DHT22;11710;48.024;16.296;2023-07-02T18:24:30;24.30;90.80
4693;DHT22;11710;48.024;16.296;2023-07-02T18:26:58;24.30;90.70
4693;DHT22;11710;48.024;16.296;2023-07-02T18:29:27;24.20;90.80
4693;DHT22;11710;48.024;16.296;2023-07-02T18:31:56;24.20;90.80
4693;DHT22;11710;48.024;16.296;2023-07-02T18:34:25;24.20;91.10
4693;DHT22;11710;48.024;16.296;2023-07-02T18:36:54;24.10;91.00
4693;DHT22;11710;48.024;16.296;2023-07-02T18:39:26;24.00;91.00
4693;DHT22;11710;48.024;16.296;2023-07-02T18:41:57;23.90;91.00
4693;DHT22;11710;48.024;16.296;2023-07-02T18:44:27;23.80;91.30
4693;DHT22;11710;48.024;16.296;2023-07-02T18:47:00;23.70;91.20
4693;DHT22;11710;48.024;16.296;2023-07-02T18:49:30;23.60;91.40
4693;DHT22;11710;48.024;16.296;2023-07-02T18:52:05;23.60;91.40
4693;DHT22;11710;48.024;16.296;2023-07-02T18:54:34;23.50;91.40
4693;DHT22;11710;48.024;16.296;2023-07-02T18:57:01;23.50;91.50
4693;DHT22;11710;48.024;16.296;2023-07-02T18:59:29;23.30;91.50
4693;DHT22;11710;48.024;16.296;2023-07-02T19:01:57;23.30;91.70
4693;DHT22;11710;48.024;16.296;2023-07-02T19:04:25;23.20;91.70
4693;DHT22;11710;48.024;16.296;2023-07-02T19:06:54;23.10;91.70
4693;DHT22;11710;48.024;16.296;2023-07-02T19:09:23;23.10;91.90
4693;DHT22;11710;48.024;16.296;2023-07-02T19:11:51;23.10;91.90
4693;DHT22;11710;48.024;16.296;2023-07-02T19:14:18;23.00;91.90
4693;DHT22;11710;48.024;16.296;2023-07-02T19:16:45;23.00;92.10
4693;DHT22;11710;48.024;16.296;2023-07-02T19:19:13;22.90;92.10
4693;DHT22;11710;48.024;16.296;2023-07-02T19:21:41;22.90;92.20
4693;DHT22;11710;48.024;16.296;2023-07-02T19:24:10;22.80;92.30
4693;DHT22;11710;48.024;16.296;2023-07-02T19:26:37;22.70;92.50
4693;DHT22;11710;48.024;16.296;2023-07-02T19:29:04;22.70;92.30
4693;DHT22;11710;48.024;16.296;2023-07-02T19:31:32;22.60;92.40
4693;DHT22;11710;48.024;16.296;2023-07-02T19:34:00;22.60;92.50
4693;DHT22;11710;48.024;16.296;2023-07-02T19:36:27;22.60;92.60
4693;DHT22;11710;48.024;16.296;2023-07-02T19:38:55;22.50;92.60
4693;DHT22;11710;48.024;16.296;2023-07-02T19:41:23;22.40;92.70
4693;DHT22;11710;48.024;16.296;2023-07-02T19:43:50;22.40;92.80
4693;DHT22;11710;48.024;16.296;2023-07-02T19:46:18;22.40;92.90
4693;DHT22;11710;48.024;16.296;2023-07-02T19:48:45;22.30;93.00
4693;DHT22;11710;48.024;16.296;2023-07-02T19:51:12;22.30;93.00
4693;DHT22;11710;48.024;16.296;2023-07-02T19:53:39;22.20;93.00
4693;DHT22;11710;48.024;16.296;2023-07-02T19:56:08;22.20;93.00
4693;DHT22;11710;48.024;16.296;2023-07-02T19:58:38;22.20;93.00
4693;DHT22;11710;48.024;16.296;2023-07-02T20:01:08;22.20;93.10
4693;DHT22;11710;48.024;16.296;2023-07-02T20:03:36;22.20;93.10
4693;DHT22;11710;48.024;16.296;2023-07-02T20:06:04;22.10;93.30
4693;DHT22;11710;48.024;16.296;2023-07-02T20:08:31;22.10;93.20
